Time;durP1;ratioP1;P1;durP2;ratioP2;P2;SDS_P1;SDS_P2;PMS_P1;PMS_P2;Temp;Humidity;BMP_temperature;BMP_pressure;BME280_temperature;BME280_humidity;BME280_pressure;Samples;Min_cycle;Max_cycle;Signal;HPM_P1;HPM_P2
2023/09/18 00:01:57;;;;;;;10.03;3.20;;;29.70;20.50;;;;;;4974513;28;20183;-69
2023/09/18 00:04:26;;;;;;;7.00;2.97;;;30.00;20.40;;;;;;4974235;28;20223;-69
2023/09/18 00:06:53;;;;;;;7.47;2.70;;;30.20;19.80;;;;;;4957457;28;20640;-70
2023/09/18 00:09:21;;;;;;;9.43;3.10;;;30.30;20.10;;;;;;4975341;28;20199;-70
2023/09/18 00:11:49;;;;;;;8.73;3.05;;;30.90;19.70;;;;;;4974731;28;20172;-70
2023/09/18 00:14:17;;;;;;;13.53;3.10;;;31.30;20.10;;;;;;4975836;28;20719;-69
2023/09/18 00:16:44;;;;;;;11.32;3.10;;;31.70;19.30;;;;;;4953323;28;20241;-70
2023/09/18 00:19:12;;;;;;;7.32;2.50;;;31.90;16.90;;;;;;4973981;28;20176;-68
2023/09/18 00:21:40;;;;;;;9.30;2.30;;;31.80;17.80;;;;;;4974337;28;20188;-68
2023/09/18 00:24:08;;;;;;;9.07;3.25;;;31.60;15.40;;;;;;4974002;28;20286;-68
2023/09/18 00:26:35;;;;;;;6.32;2.53;;;31.50;17.30;;;;;;4974009;28;20180;-68
2023/09/18 00:29:03;;;;;;;7.25;2.45;;;31.80;15.20;;;;;;4974252;28;20695;-69
2023/09/18 00:31:31;;;;;;;8.95;2.65;;;32.00;13.10;;;;;;4977071;28;20220;-70
2023/09/18 00:33:58;;;;;;;18.92;2.92;;;32.00;13.50;;;;;;4977491;28;20198;-68
2023/09/18 00:36:26;;;;;;;11.80;3.03;;;32.40;12.00;;;;;;4978154;28;20242;-71
2023/09/18 00:38:54;;;;;;;4.50;2.25;;;32.40;12.60;;;;;;4975032;28;20179;-70
2023/09/18 00:41:21;;;;;;;9.13;2.63;;;32.70;10.60;;;;;;4981058;28;20198;-69
2023/09/18 00:43:49;;;;;;;7.82;2.45;;;33.20;9.20;;;;;;4956279;28;20192;-70
2023/09/18 00:46:17;;;;;;;11.10;2.67;;;33.20;8.50;;;;;;4970919;28;20193;-71
2023/09/18 00:48:44;;;;;;;4.72;2.30;;;33.40;9.10;;;;;;4973746;28;20218;-70
2023/09/18 00:51:13;;;;;;;5.47;2.40;;;33.50;8.70;;;;;;4974141;28;20559;-70
2023/09/18 00:53:45;;;;;;;5.72;2.88;;;33.10;6.80;;;;;;4973014;28;20195;-69
2023/09/18 00:56:13;;;;;;;14.55;2.58;;;33.00;6.10;;;;;;4973209;28;20171;-69
2023/09/18 00:58:41;;;;;;;5.10;2.10;;;34.00;5.00;;;;;;4973681;28;20608;-71
2023/09/18 01:01:10;;;;;;;5.45;1.92;;;34.30;1.00;;;;;;4955193;28;20286;-69
2023/09/18 01:03:38;;;;;;;6.00;2.22;;;34.10;1.00;;;;;;4972614;28;20247;-71
2023/09/18 01:06:06;;;;;;;3.63;2.08;;;34.10;1.00;;;;;;4972421;28;20266;-71
2023/09/18 01:08:34;;;;;;;4.97;2.55;;;34.40;1.00;;;;;;4972230;28;20238;-69
2023/09/18 01:11:31;;;;;;;5.63;2.28;;;35.10;1.00;;;;;;4972896;28;20648;-70
2023/09/18 01:14:47;;;;;;;3.20;2.28;;;35.20;1.00;;;;;;4969161;28;20567;-69
2023/09/18 01:17:16;;;;;;;2.55;1.90;;;34.70;1.00;;;;;;4953303;29;20202;-70
2023/09/18 01:19:46;;;;;;;3.10;1.98;;;34.90;1.00;;;;;;4954217;29;20172;-69
2023/09/18 01:22:19;;;;;;;7.30;1.98;;;34.90;1.00;;;;;;4953582;29;20654;-69
2023/09/18 01:24:48;;;;;;;3.05;1.90;;;34.90;1.00;;;;;;4966453;28;20187;-69
2023/09/18 01:27:18;;;;;;;5.68;1.98;;;34.40;1.00;;;;;;4972786;28;20186;-70
2023/09/18 01:29:47;;;;;;;5.68;2.10;;;34.60;1.00;;;;;;4973371;28;20190;-71
2023/09/18 01:32:15;;;;;;;8.90;2.38;;;34.80;1.00;;;;;;4972655;28;20183;-69
2023/09/18 01:34:55;;;;;;;5.07;2.20;;;34.70;1.00;;;;;;4972415;28;20287;-70
2023/09/18 01:37:26;;;;;;;4.05;2.00;;;34.90;1.00;;;;;;4949758;28;20184;-70
2023/09/18 01:39:57;;;;;;;4.35;2.20;;;35.60;1.00;;;;;;4971585;28;20190;-70
2023/09/18 01:42:27;;;;;;;3.50;2.00;;;36.00;1.00;;;;;;4970229;28;20184;-71
2023/09/18 01:44:55;;;;;;;2.78;2.22;;;36.20;1.00;;;;;;4967055;28;20246;-70
2023/09/18 01:47:24;;;;;;;4.75;2.53;;;36.30;1.00;;;;;;4966640;28;20540;-70
2023/09/18 01:49:51;;;;;;;6.93;2.25;;;36.90;1.00;;;;;;4956657;28;20187;-70
2023/09/18 01:52:19;;;;;;;5.25;2.10;;;36.90;1.00;;;;;;4954594;29;20187;-70
2023/09/18 01:54:47;;;;;;;6.60;2.58;;;36.60;1.00;;;;;;4971522;28;20198;-70
2023/09/18 01:57:15;;;;;;;5.72;2.30;;;36.50;1.00;;;;;;4966637;28;20191;-69
2023/09/18 01:59:44;;;;;;;3.22;1.98;;;36.40;1.00;;;;;;4969364;28;20289;-70
2023/09/18 02:02:12;;;;;;;7.32;1.88;;;35.80;1.00;;;;;;4969653;28;20179;-69
2023/09/18 02:04:40;;;;;;;4.38;2.20;;;35.90;1.00;;;;;;4944929;29;20233;-70
2023/09/18 02:07:08;;;;;;;7.00;2.60;;;35.80;1.00;;;;;;4956153;28;20183;-70
2023/09/18 02:09:36;;;;;;;4.43;2.28;;;36.20;1.00;;;;;;4959860;28;20198;-70
2023/09/18 02:12:05;;;;;;;4.25;2.47;;;36.10;1.00;;;;;;4974792;28;20567;-71
2023/09/18 02:14:33;;;;;;;3.65;2.25;;;36.30;1.00;;;;;;4977241;28;20198;-71
2023/09/18 02:17:01;;;;;;;8.93;2.70;;;36.40;1.00;;;;;;4936592;28;20190;-72
2023/09/18 02:19:29;;;;;;;6.88;2.22;;;36.60;1.00;;;;;;4975364;28;20635;-71
2023/09/18 02:21:58;;;;;;;6.40;2.33;;;36.20;1.00;;;;;;4975775;28;20210;-69
2023/09/18 02:27:49;;;;;;;5.93;2.35;;;36.80;1.00;;;;;;4974923;28;20202;-71
2023/09/18 02:30:28;;;;;;;10.07;2.65;;;36.50;1.00;;;;;;4975288;28;20551;-70
2023/09/18 02:33:06;;;;;;;7.53;2.33;;;36.70;1.00;;;;;;4974064;28;20680;-71
2023/09/18 02:35:41;;;;;;;3.10;2.40;;;37.20;1.00;;;;;;4975239;28;20638;-70
2023/09/18 02:38:08;;;;;;;3.83;2.40;;;37.20;1.00;;;;;;4957931;28;20214;-70
2023/09/18 02:40:36;;;;;;;3.92;2.45;;;36.70;1.00;;;;;;4975558;28;20250;-71
2023/09/18 02:43:04;;;;;;;5.47;2.67;;;36.40;1.00;;;;;;4975729;28;20190;-70
2023/09/18 02:45:32;;;;;;;6.28;2.40;;;36.70;1.00;;;;;;4974923;28;20538;-70
2023/09/18 02:48:00;;;;;;;3.65;2.60;;;37.00;1.00;;;;;;4975206;28;20187;-70
2023/09/18 02:50:31;;;;;;;3.42;2.63;;;37.00;1.00;;;;;;4974834;28;20183;-70
2023/09/18 02:52:59;;;;;;;2.85;2.30;;;36.90;1.00;;;;;;4956695;28;20184;-71
2023/09/18 02:55:27;;;;;;;8.85;2.65;;;37.20;1.00;;;;;;4960742;28;20218;-71
2023/09/18 02:57:54;;;;;;;6.88;2.72;;;37.10;1.00;;;;;;4974638;28;20687;-70
2023/09/18 03:00:22;;;;;;;6.85;2.33;;;37.10;1.00;;;;;;4974966;28;20559;-69
2023/09/18 03:02:50;;;;;;;5.13;2.97;;;36.90;1.00;;;;;;4974347;28;20703;-72
2023/09/18 03:05:18;;;;;;;2.65;2.35;;;37.20;1.00;;;;;;4957155;28;20194;-71
2023/09/18 03:07:45;;;;;;;6.15;2.90;;;37.10;1.00;;;;;;4974660;28;20179;-72
2023/09/18 03:10:15;;;;;;;7.32;2.50;;;37.50;1.00;;;;;;4974036;28;20183;-71
2023/09/18 03:12:43;;;;;;;10.30;3.00;;;37.20;1.00;;;;;;4974700;28;20193;-72
2023/09/18 03:15:11;;;;;;;4.22;2.90;;;37.10;1.00;;;;;;4974330;28;20195;-72
2023/09/18 03:17:41;;;;;;;6.35;2.90;;;37.20;1.00;;;;;;4974607;28;20265;-72
2023/09/18 03:20:10;;;;;;;6.95;2.78;;;37.10;1.00;;;;;;4957019;28;20179;-71
2023/09/18 03:22:37;;;;;;;3.95;2.65;;;37.60;1.00;;;;;;4974563;28;20572;-71
2023/09/18 03:25:05;;;;;;;6.20;2.80;;;37.50;1.00;;;;;;4974456;28;20606;-70
2023/09/18 03:27:33;;;;;;;3.67;2.50;;;37.10;1.00;;;;;;4974294;28;20732;-70
2023/09/18 03:30:01;;;;;;;6.57;2.97;;;37.10;1.00;;;;;;4974188;28;20659;-68
2023/09/18 03:32:29;;;;;;;2.90;2.60;;;36.80;1.00;;;;;;4990759;28;20183;-71
2023/09/18 03:34:56;;;;;;;7.10;3.10;;;36.90;1.00;;;;;;4976968;28;20179;-70
2023/09/18 03:37:24;;;;;;;4.95;2.70;;;37.00;1.00;;;;;;4973636;28;20297;-70
2023/09/18 03:39:52;;;;;;;6.03;2.90;;;37.40;1.00;;;;;;4974172;28;20191;-70
2023/09/18 03:45:42;;;;;;;4.68;2.40;;;37.00;1.00;;;;;;4956043;29;20182;-69
2023/09/18 03:48:11;;;;;;;3.63;2.70;;;37.30;1.00;;;;;;4964466;28;20281;-68
2023/09/18 03:50:39;;;;;;;4.97;3.25;;;37.60;1.00;;;;;;4973690;28;20179;-68
2023/09/18 03:53:07;;;;;;;4.28;3.05;;;37.40;1.00;;;;;;4973386;28;20184;-71
2023/09/18 03:55:35;;;;;;;6.65;2.92;;;37.30;1.00;;;;;;4973790;28;20703;-71
2023/09/18 03:58:04;;;;;;;9.45;3.05;;;37.20;1.00;;;;;;4973177;28;20221;-71
2023/09/18 04:00:32;;;;;;;7.47;3.00;;;37.20;1.00;;;;;;4974053;28;20258;-72
2023/09/18 04:03:30;;;;;;;3.95;2.95;;;37.30;1.00;;;;;;4973533;28;20223;-69
2023/09/18 04:09:20;;;;;;;3.60;3.20;;;37.30;1.00;;;;;;4972534;28;20206;-70
2023/09/18 04:11:47;;;;;;;4.72;2.78;;;37.40;1.00;;;;;;4973352;28;20168;-70
2023/09/18 04:14:15;;;;;;;5.65;2.90;;;37.50;1.00;;;;;;4972378;28;20250;-70
2023/09/18 04:16:44;;;;;;;9.48;3.42;;;37.30;1.00;;;;;;4972937;28;20270;-69
2023/09/18 04:19:12;;;;;;;4.55;3.25;;;37.00;1.00;;;;;;4972143;28;20627;-69
2023/09/18 04:21:39;;;;;;;8.52;2.85;;;36.80;1.00;;;;;;4955777;28;20551;-68
2023/09/18 04:24:07;;;;;;;3.03;2.72;;;36.80;1.00;;;;;;4973084;28;20183;-68
2023/09/18 04:26:37;;;;;;;5.78;2.85;;;36.40;1.00;;;;;;4973071;28;20243;-67
2023/09/18 04:29:05;;;;;;;4.28;3.10;;;36.50;1.00;;;;;;4972993;28;20253;-71
2023/09/18 04:31:33;;;;;;;5.65;2.92;;;36.50;1.00;;;;;;4973021;28;20183;-71
2023/09/18 04:34:05;;;;;;;4.68;3.03;;;36.50;1.00;;;;;;4972453;28;20217;-68
2023/09/18 04:36:33;;;;;;;3.58;2.95;;;36.50;1.00;;;;;;4973843;28;20608;-68
2023/09/18 04:39:01;;;;;;;6.53;3.35;;;36.50;1.00;;;;;;4974211;28;20210;-66
2023/09/18 04:41:29;;;;;;;5.45;2.95;;;36.50;1.00;;;;;;4973661;28;20179;-71
2023/09/18 04:43:56;;;;;;;4.65;3.00;;;36.40;1.00;;;;;;4958753;28;20642;-68
2023/09/18 04:46:24;;;;;;;6.65;2.85;;;36.40;1.00;;;;;;4974582;28;20172;-71
2023/09/18 04:48:52;;;;;;;5.95;3.08;;;36.40;1.00;;;;;;4971242;28;20183;-72
2023/09/18 04:51:20;;;;;;;4.50;3.20;;;36.40;1.00;;;;;;4974788;28;20593;-70
2023/09/18 04:53:48;;;;;;;8.18;3.10;;;36.20;1.00;;;;;;4974202;28;20557;-71
2023/09/18 04:56:15;;;;;;;4.07;3.13;;;36.20;1.00;;;;;;4974248;28;20242;-71
2023/09/18 04:58:43;;;;;;;4.60;2.58;;;36.20;1.00;;;;;;4974131;28;20218;-67
2023/09/18 05:01:11;;;;;;;3.72;2.80;;;36.20;1.00;;;;;;4956782;28;20184;-68
2023/09/18 05:03:38;;;;;;;6.13;3.13;;;36.20;1.00;;;;;;4972189;28;20286;-70
2023/09/18 05:06:06;;;;;;;5.43;2.97;;;36.10;1.00;;;;;;4973305;28;20660;-70
2023/09/18 05:08:33;;;;;;;4.25;2.90;;;36.00;1.00;;;;;;4973457;28;20278;-70
2023/09/18 05:11:00;;;;;;;4.22;3.40;;;36.00;1.00;;;;;;4973791;28;20183;-70
2023/09/18 05:13:28;;;;;;;3.70;3.30;;;35.90;1.00;;;;;;4973400;28;20712;-70
2023/09/18 05:15:55;;;;;;;3.58;2.78;;;35.90;1.00;;;;;;4953110;28;20790;-71
2023/09/18 05:18:22;;;;;;;8.07;3.00;;;35.80;1.00;;;;;;4971385;28;20253;-71
2023/09/18 05:20:50;;;;;;;5.00;3.10;;;35.90;1.00;;;;;;4955076;28;20188;-73
2023/09/18 05:23:18;;;;;;;5.45;3.20;;;35.80;1.00;;;;;;4972232;28;20198;-72
2023/09/18 05:25:45;;;;;;;5.10;3.00;;;35.80;1.00;;;;;;4971940;28;20252;-73
2023/09/18 05:28:13;;;;;;;4.22;3.10;;;35.70;1.00;;;;;;4971764;28;20246;-72
2023/09/18 05:30:40;;;;;;;3.85;3.28;;;35.70;1.00;;;;;;4971999;28;20194;-72
2023/09/18 05:33:08;;;;;;;4.72;3.17;;;35.60;1.00;;;;;;4971485;28;20215;-72
2023/09/18 05:35:40;;;;;;;3.88;3.30;;;35.60;1.00;;;;;;4971731;28;20645;-72
2023/09/18 05:38:08;;;;;;;3.50;3.03;;;35.60;1.00;;;;;;4971717;28;20610;-71
2023/09/18 05:40:35;;;;;;;5.82;3.15;;;35.50;1.00;;;;;;4971504;28;20290;-71
2023/09/18 05:43:03;;;;;;;4.40;3.22;;;35.50;1.00;;;;;;4972078;28;20189;-71
2023/09/18 05:45:32;;;;;;;3.30;3.03;;;35.40;1.00;;;;;;4971791;28;20398;-71
2023/09/18 05:48:05;;;;;;;4.90;3.28;;;35.40;1.00;;;;;;4975030;28;20183;-72
2023/09/18 05:50:35;;;;;;;8.25;3.60;;;35.40;1.00;;;;;;4976070;28;20183;-70
2023/09/18 05:53:05;;;;;;;9.05;3.30;;;35.40;1.00;;;;;;4975876;28;20220;-71
2023/09/18 05:55:34;;;;;;;3.45;3.15;;;35.40;1.00;;;;;;4958004;28;20191;-72
2023/09/18 05:58:04;;;;;;;3.55;3.20;;;35.40;1.00;;;;;;4975583;28;20282;-69
2023/09/18 06:00:31;;;;;;;5.68;3.53;;;35.40;1.00;;;;;;4975692;28;20275;-70
2023/09/18 06:02:59;;;;;;;3.42;3.00;;;35.40;1.00;;;;;;4975292;28;20579;-70
2023/09/18 06:05:26;;;;;;;9.70;3.45;;;35.30;1.00;;;;;;4975146;28;20568;-70
2023/09/18 06:07:53;;;;;;;5.60;2.92;;;35.10;1.00;;;;;;4975624;28;20176;-70
2023/09/18 06:10:21;;;;;;;3.92;3.42;;;35.10;1.00;;;;;;4975300;28;20195;-70
2023/09/18 06:12:48;;;;;;;5.78;3.30;;;35.00;1.00;;;;;;4974739;28;20544;-70
2023/09/18 06:15:16;;;;;;;4.53;3.42;;;34.90;1.00;;;;;;4975080;28;20196;-70
2023/09/18 06:17:44;;;;;;;7.05;3.58;;;34.90;1.00;;;;;;4974637;28;20206;-71
2023/09/18 06:20:13;;;;;;;4.32;3.47;;;34.90;1.00;;;;;;4974818;28;20211;-70
2023/09/18 06:22:41;;;;;;;6.30;2.95;;;34.90;1.00;;;;;;4974717;28;20228;-69
2023/09/18 06:25:13;;;;;;;4.82;3.20;;;34.80;1.00;;;;;;4974937;28;20175;-70
2023/09/18 06:27:42;;;;;;;7.72;3.58;;;34.80;1.00;;;;;;4974548;28;20213;-71
2023/09/18 06:30:09;;;;;;;6.88;3.28;;;34.70;1.00;;;;;;4974847;28;20571;-72
2023/09/18 06:32:37;;;;;;;3.65;3.17;;;34.70;1.00;;;;;;4974648;28;20183;-72
2023/09/18 06:35:07;;;;;;;6.30;3.63;;;34.60;1.00;;;;;;4974936;28;20202;-72
2023/09/18 06:37:34;;;;;;;7.00;3.47;;;34.60;1.00;;;;;;4975053;28;20199;-70
2023/09/18 06:40:03;;;;;;;6.53;3.47;;;34.60;1.00;;;;;;4975250;28;20214;-71
2023/09/18 06:42:31;;;;;;;3.58;3.08;;;34.50;1.00;;;;;;4937781;28;20189;-71
2023/09/18 06:44:59;;;;;;;7.15;3.63;;;34.50;1.00;;;;;;4974741;28;20545;-71
2023/09/18 06:47:26;;;;;;;6.40;3.50;;;34.50;1.00;;;;;;4974280;28;20210;-70
2023/09/18 06:49:57;;;;;;;6.78;3.78;;;34.50;1.00;;;;;;4974517;28;20605;-72
2023/09/18 06:52:26;;;;;;;7.18;3.35;;;34.40;1.00;;;;;;4973944;28;20183;-72
2023/09/18 06:54:54;;;;;;;4.65;2.90;;;34.20;1.00;;;;;;4974395;28;20215;-71
2023/09/18 06:57:21;;;;;;;10.93;3.60;;;34.20;1.00;;;;;;4973247;28;20190;-71
2023/09/18 06:59:48;;;;;;;4.57;3.55;;;33.90;1.00;;;;;;4973914;28;20195;-72
2023/09/18 07:02:16;;;;;;;8.38;3.33;;;33.70;1.00;;;;;;4973636;28;20270;-71
2023/09/18 07:04:46;;;;;;;6.93;3.85;;;33.50;1.00;;;;;;4974111;28;20234;-73
2023/09/18 07:07:15;;;;;;;5.43;3.17;;;33.20;1.00;;;;;;4956783;28;20184;-72
2023/09/18 07:09:43;;;;;;;7.82;3.22;;;32.90;1.00;;;;;;4971743;28;20201;-73
2023/09/18 07:15:32;;;;;;;8.68;3.65;;;32.50;1.00;;;;;;4954106;29;20299;-71
2023/09/18 07:18:00;;;;;;;7.53;3.83;;;32.10;1.00;;;;;;4954650;29;20705;-71
2023/09/18 07:20:28;;;;;;;4.03;3.30;;;31.90;1.00;;;;;;4938170;29;20319;-71
2023/09/18 07:22:55;;;;;;;4.40;3.70;;;31.70;1.00;;;;;;4955146;29;20558;-70
2023/09/18 07:25:24;;;;;;;8.40;3.85;;;31.60;1.00;;;;;;4965854;28;20246;-69
2023/09/18 07:27:51;;;;;;;4.82;3.40;;;31.30;1.00;;;;;;4973845;28;20187;-71
2023/09/18 07:30:21;;;;;;;7.40;4.30;;;31.10;1.00;;;;;;4974113;28;20186;-71
2023/09/18 07:32:49;;;;;;;6.35;3.50;;;30.90;1.00;;;;;;4974384;28;20561;-70
2023/09/18 07:35:20;;;;;;;8.32;4.43;;;30.70;1.00;;;;;;4973759;28;20206;-71
2023/09/18 07:37:47;;;;;;;5.60;3.58;;;30.50;1.00;;;;;;4956802;28;20343;-70
2023/09/18 07:40:15;;;;;;;10.38;3.90;;;30.30;1.00;;;;;;4973874;28;20186;-69
2023/09/18 07:42:46;;;;;;;7.88;4.38;;;30.10;1.00;;;;;;4974127;28;20645;-71
2023/09/18 07:45:14;;;;;;;6.60;3.78;;;29.80;1.00;;;;;;4974240;28;20176;-71
2023/09/18 07:47:41;;;;;;;5.18;3.95;;;29.70;1.00;;;;;;4973513;28;20218;-71
2023/09/18 07:50:09;;;;;;;7.10;4.13;;;29.50;1.00;;;;;;4974052;28;20172;-73
2023/09/18 07:52:36;;;;;;;9.13;3.72;;;29.40;1.00;;;;;;4973835;28;20207;-74
2023/09/18 07:55:04;;;;;;;4.85;3.58;;;29.20;1.00;;;;;;4973201;28;20685;-70
2023/09/18 07:57:34;;;;;;;7.90;3.92;;;29.10;1.00;;;;;;4973096;28;20179;-72
2023/09/18 08:00:07;;;;;;;9.43;3.70;;;28.90;1.00;;;;;;4973461;28;20183;-70
2023/09/18 08:02:35;;;;;;;4.03;3.60;;;28.70;1.00;;;;;;4973219;28;20270;-71
2023/09/18 08:05:02;;;;;;;5.80;4.00;;;28.60;1.00;;;;;;4956362;28;20266;-69
2023/09/18 08:07:31;;;;;;;5.63;3.90;;;28.30;1.00;;;;;;4971451;28;20188;-73
2023/09/18 08:09:59;;;;;;;7.93;4.03;;;28.20;1.00;;;;;;4954258;28;20263;-70
2023/09/18 08:12:27;;;;;;;6.23;4.07;;;28.00;1.00;;;;;;4954313;28;20187;-71
2023/09/18 08:14:57;;;;;;;5.63;3.87;;;27.80;1.00;;;;;;4954232;29;20188;-72
2023/09/18 08:17:24;;;;;;;11.20;4.13;;;27.70;1.00;;;;;;4953706;29;20573;-71
2023/09/18 08:19:53;;;;;;;5.33;4.03;;;27.50;1.00;;;;;;4973241;28;20727;-73
2023/09/18 08:22:21;;;;;;;9.00;4.33;;;27.20;1.50;;;;;;4955818;28;20625;-70
2023/09/18 08:24:50;;;;;;;5.63;3.80;;;27.10;3.80;;;;;;4956231;28;20270;-70
2023/09/18 08:27:17;;;;;;;8.10;4.20;;;26.80;2.70;;;;;;4955785;28;20370;-69
2023/09/18 08:29:55;;;;;;;6.43;4.13;;;26.60;3.70;;;;;;4972975;28;20191;-70
2023/09/18 08:32:22;;;;;;;5.43;4.30;;;26.40;3.50;;;;;;4973076;28;20182;-70
2023/09/18 08:34:49;;;;;;;7.53;5.20;;;26.20;3.90;;;;;;4972527;28;20214;-69
2023/09/18 08:37:18;;;;;;;8.40;4.90;;;26.10;3.10;;;;;;4972930;28;20183;-71
2023/09/18 08:39:45;;;;;;;10.20;4.57;;;25.90;5.00;;;;;;4972912;28;20277;-70
2023/09/18 08:42:15;;;;;;;8.23;4.80;;;25.80;4.00;;;;;;4973113;28;20215;-71
2023/09/18 08:44:45;;;;;;;10.63;5.17;;;25.70;5.20;;;;;;4973130;28;20187;-69
2023/09/18 08:47:15;;;;;;;10.93;4.90;;;25.70;6.50;;;;;;4973183;28;20179;-69
2023/09/18 08:50:20;;;;;;;6.87;4.93;;;25.60;6.80;;;;;;4972421;28;20202;-69
2023/09/18 08:52:49;;;;;;;9.57;5.90;;;25.40;6.60;;;;;;4973080;28;20175;-72
2023/09/18 08:55:20;;;;;;;9.40;4.80;;;25.40;6.90;;;;;;4972365;28;20660;-71
2023/09/18 08:57:49;;;;;;;5.70;4.77;;;25.30;7.50;;;;;;4972927;28;20211;-71
2023/09/18 09:00:19;;;;;;;5.93;4.73;;;25.20;9.80;;;;;;4972558;28;20171;-70
2023/09/18 09:02:50;;;;;;;8.63;4.70;;;25.10;10.90;;;;;;4972513;28;20657;-71
2023/09/18 09:05:18;;;;;;;8.17;5.23;;;25.00;11.70;;;;;;4972581;28;20201;-71
2023/09/18 09:07:45;;;;;;;11.23;4.97;;;24.90;11.80;;;;;;4972494;28;20179;-70
2023/09/18 09:10:13;;;;;;;8.87;5.17;;;24.80;13.50;;;;;;4953705;29;20215;-70
2023/09/18 09:13:01;;;;;;;8.13;5.53;;;24.70;13.40;;;;;;4953541;29;20187;-71
2023/09/18 09:15:49;;;;;;;7.73;4.50;;;24.50;15.50;;;;;;4953627;29;20191;-72
2023/09/18 09:18:17;;;;;;;6.13;5.03;;;24.40;17.80;;;;;;4954278;28;20228;-69
2023/09/18 09:21:04;;;;;;;8.97;5.33;;;24.30;18.40;;;;;;4972240;28;20217;-70
2023/09/18 09:23:53;;;;;;;8.90;4.50;;;24.20;20.30;;;;;;4972549;28;20704;-70
2023/09/18 09:26:22;;;;;;;9.00;4.87;;;24.10;22.40;;;;;;4972509;28;20183;-71
2023/09/18 09:28:50;;;;;;;11.00;5.40;;;24.10;23.70;;;;;;4971960;28;20664;-70
2023/09/18 09:31:27;;;;;;;6.13;4.63;;;23.90;23.70;;;;;;4972276;28;20194;-74
2023/09/18 09:33:56;;;;;;;11.53;5.40;;;23.80;26.80;;;;;;4971972;28;20186;-69
2023/09/18 09:36:24;;;;;;;11.80;5.60;;;23.70;26.10;;;;;;4971910;28;20190;-72
2023/09/18 09:39:04;;;;;;;10.20;5.67;;;23.70;27.90;;;;;;4972015;28;20226;-68
2023/09/18 09:41:35;;;;;;;9.87;5.47;;;23.50;29.60;;;;;;4972016;28;20233;-72
2023/09/18 09:44:05;;;;;;;11.70;6.30;;;23.50;35.60;;;;;;4972266;28;20175;-71
2023/09/18 09:46:33;;;;;;;8.97;5.67;;;23.40;36.70;;;;;;4971698;28;20218;-70
2023/09/18 09:49:05;;;;;;;13.50;5.43;;;23.30;38.00;;;;;;4972244;28;20194;-71
2023/09/18 09:51:34;;;;;;;9.53;5.87;;;23.30;41.90;;;;;;4954633;28;20191;-69
2023/09/18 09:54:02;;;;;;;10.30;5.90;;;23.20;45.90;;;;;;4972138;28;20195;-68
2023/09/18 09:56:51;;;;;;;11.97;7.03;;;23.20;49.90;;;;;;4972303;28;20188;-69
2023/09/18 09:59:20;;;;;;;13.07;6.70;;;23.10;53.10;;;;;;4972035;28;20227;-70
2023/09/18 10:01:51;;;;;;;10.43;5.77;;;23.00;54.50;;;;;;4972082;28;20175;-71
2023/09/18 10:04:19;;;;;;;20.73;6.50;;;23.00;59.60;;;;;;4955197;28;20322;-71
2023/09/18 10:07:15;;;;;;;14.27;7.17;;;23.00;60.20;;;;;;4971733;28;20179;-71
2023/09/18 10:09:44;;;;;;;10.43;6.70;;;22.80;63.40;;;;;;4971168;28;20184;-69
2023/09/18 10:12:21;;;;;;;11.37;6.33;;;22.80;64.40;;;;;;4973238;28;20602;-68
2023/09/18 10:14:53;;;;;;;11.00;6.13;;;22.60;73.30;;;;;;4973400;28;20171;-69
2023/09/18 10:17:21;;;;;;;18.07;6.40;;;22.50;78.80;;;;;;4973524;28;20215;-69
2023/09/18 10:20:15;;;;;;;12.73;6.50;;;22.50;81.90;;;;;;4973293;28;20408;-69
2023/09/18 10:22:55;;;;;;;11.33;6.50;;;22.40;89.50;;;;;;4973182;28;20217;-70
2023/09/18 10:25:28;;;;;;;14.57;6.73;;;22.30;90.30;;;;;;4965087;28;20255;-71
2023/09/18 10:28:01;;;;;;;12.77;6.13;;;22.30;92.00;;;;;;4962877;28;20591;-69
2023/09/18 10:30:34;;;;;;;12.10;6.80;;;22.20;92.20;;;;;;4964675;28;20229;-70
2023/09/18 10:33:01;;;;;;;11.27;6.90;;;22.10;94.90;;;;;;4964962;28;20631;-69
2023/09/18 10:35:29;;;;;;;14.70;6.37;;;22.10;95.90;;;;;;4957905;28;20534;-69
2023/09/18 10:37:58;;;;;;;11.43;7.03;;;22.00;97.40;;;;;;4940540;29;20294;-70
2023/09/18 10:40:27;;;;;;;13.90;6.87;;;22.10;99.50;;;;;;4957771;29;20247;-70
2023/09/18 10:42:57;;;;;;;14.37;6.77;;;22.00;97.30;;;;;;4957451;29;20545;-69
2023/09/18 10:45:26;;;;;;;10.20;6.27;;;21.90;99.50;;;;;;4957442;29;20195;-69
2023/09/18 10:47:54;;;;;;;9.60;6.70;;;21.70;99.90;;;;;;4957378;29;20180;-68
2023/09/18 10:50:27;;;;;;;11.93;6.43;;;21.60;99.90;;;;;;4957414;29;20544;-70
2023/09/18 10:52:57;;;;;;;11.63;7.00;;;21.60;99.90;;;;;;4957653;29;20176;-70
2023/09/18 10:55:24;;;;;;;13.13;6.23;;;21.50;99.90;;;;;;4956504;29;20195;-69
2023/09/18 10:57:57;;;;;;;12.77;7.47;;;21.50;99.90;;;;;;4957182;28;20666;-69
2023/09/18 11:00:36;;;;;;;19.53;6.90;;;21.30;99.90;;;;;;4957497;29;20183;-69
2023/09/18 11:03:17;;;;;;;14.60;6.57;;;21.30;99.90;;;;;;4957102;29;20241;-70
2023/09/18 11:05:52;;;;;;;13.20;6.43;;;21.30;99.90;;;;;;4957384;28;20186;-70
2023/09/18 11:08:28;;;;;;;19.07;7.17;;;21.30;99.90;;;;;;4939868;29;20179;-70
2023/09/18 11:11:21;;;;;;;12.23;6.20;;;21.20;99.90;;;;;;4957167;29;20178;-71
2023/09/18 11:13:56;;;;;;;13.20;5.80;;;21.10;99.90;;;;;;4955616;29;20202;-68
2023/09/18 11:16:30;;;;;;;13.53;7.07;;;21.00;99.90;;;;;;4957094;29;20599;-69
2023/09/18 11:19:06;;;;;;;12.17;6.73;;;21.00;99.90;;;;;;4956995;29;20213;-70
2023/09/18 11:21:36;;;;;;;13.83;6.90;;;21.00;99.90;;;;;;4957383;29;20267;-69
2023/09/18 11:24:21;;;;;;;14.10;6.47;;;20.80;99.90;;;;;;4940010;29;20211;-70
2023/09/18 11:26:50;;;;;;;13.57;7.03;;;20.80;99.90;;;;;;4957037;29;20191;-69
2023/09/18 11:29:23;;;;;;;17.07;6.43;;;20.70;99.90;;;;;;4939280;29;20180;-69
2023/09/18 11:31:56;;;;;;;16.17;6.67;;;20.70;99.90;;;;;;4956661;29;20187;-69
2023/09/18 11:34:28;;;;;;;11.93;6.60;;;20.60;99.90;;;;;;4956420;29;20186;-69
2023/09/18 11:36:59;;;;;;;15.33;6.47;;;20.50;99.90;;;;;;4956466;29;20299;-68
2023/09/18 11:39:44;;;;;;;9.40;6.30;;;20.50;99.90;;;;;;4956670;29;20215;-68
2023/09/18 11:42:22;;;;;;;9.20;6.40;;;20.50;99.90;;;;;;4939453;29;20543;-71
2023/09/18 11:44:50;;;;;;;15.73;6.53;;;20.40;99.90;;;;;;4956286;28;20183;-69
2023/09/18 11:47:24;;;;;;;14.70;6.60;;;20.40;99.90;;;;;;4956824;29;20207;-70
2023/09/18 11:49:57;;;;;;;12.63;6.30;;;20.30;99.90;;;;;;4939021;29;20207;-69
2023/09/18 11:52:27;;;;;;;14.33;6.60;;;20.20;99.90;;;;;;4956281;29;20195;-70
2023/09/18 11:54:57;;;;;;;10.47;6.17;;;20.10;99.90;;;;;;4956366;28;20180;-69
2023/09/18 11:57:28;;;;;;;11.93;6.17;;;20.10;99.90;;;;;;4956346;29;20183;-68
2023/09/18 11:59:59;;;;;;;14.97;7.07;;;20.10;99.90;;;;;;4955689;29;20669;-70
2023/09/18 12:02:45;;;;;;;11.20;6.80;;;20.00;99.90;;;;;;4955831;29;20660;-70
2023/09/18 12:05:15;;;;;;;12.83;6.33;;;19.90;99.90;;;;;;4956268;29;20203;-69
2023/09/18 12:07:47;;;;;;;9.20;6.33;;;19.90;99.90;;;;;;4956269;29;20191;-69
2023/09/18 12:10:21;;;;;;;13.27;5.97;;;19.80;99.90;;;;;;4955876;29;20232;-68
2023/09/18 12:12:48;;;;;;;7.87;5.93;;;19.80;99.90;;;;;;4938781;29;20195;-68
2023/09/18 12:15:19;;;;;;;8.27;5.90;;;19.70;99.90;;;;;;4955513;29;20709;-68
2023/09/18 12:17:47;;;;;;;11.73;6.43;;;19.70;99.90;;;;;;4955511;29;20282;-69
2023/09/18 12:20:20;;;;;;;10.00;6.47;;;19.60;99.90;;;;;;4955788;28;20202;-69
2023/09/18 12:22:51;;;;;;;9.60;6.87;;;19.60;99.90;;;;;;4938477;29;20187;-69
2023/09/18 12:25:23;;;;;;;11.73;6.63;;;19.60;99.90;;;;;;4955756;29;20186;-70
2023/09/18 12:27:55;;;;;;;13.00;6.90;;;19.50;99.90;;;;;;4966469;28;20614;-68
2023/09/18 12:30:23;;;;;;;10.67;6.17;;;19.50;99.90;;;;;;4974025;28;20648;-69
2023/09/18 12:32:57;;;;;;;11.73;5.80;;;19.40;99.90;;;;;;4957028;28;20192;-68
2023/09/18 12:35:30;;;;;;;9.97;6.57;;;19.30;99.90;;;;;;4973995;28;20179;-69
2023/09/18 12:37:59;;;;;;;9.60;6.93;;;19.30;99.90;;;;;;4974265;28;20254;-70
2023/09/18 12:40:34;;;;;;;7.60;6.13;;;19.20;99.90;;;;;;4974190;28;20195;-70
2023/09/18 12:43:03;;;;;;;12.47;6.07;;;19.10;99.90;;;;;;4974119;28;20715;-70
2023/09/18 12:45:30;;;;;;;11.93;6.40;;;19.10;99.90;;;;;;4973975;28;20232;-69
2023/09/18 12:47:59;;;;;;;8.27;5.93;;;19.00;99.90;;;;;;4974612;28;20191;-69
2023/09/18 12:50:27;;;;;;;13.27;6.40;;;19.00;99.90;;;;;;4975088;28;20239;-70
2023/09/18 12:53:07;;;;;;;10.67;6.63;;;18.90;99.90;;;;;;4974536;28;20190;-70
2023/09/18 12:55:35;;;;;;;8.57;5.97;;;18.90;99.90;;;;;;4949497;28;20743;-68
2023/09/18 12:58:07;;;;;;;20.60;7.10;;;18.80;99.90;;;;;;4974221;28;20250;-69
2023/09/18 13:00:35;;;;;;;9.40;6.77;;;18.80;99.90;;;;;;4974078;28;20225;-69
2023/09/18 13:03:04;;;;;;;8.40;6.00;;;18.70;99.90;;;;;;4973945;28;20226;-70
2023/09/18 13:05:35;;;;;;;11.70;6.30;;;18.70;99.90;;;;;;4973983;28;20206;-70
2023/09/18 13:08:04;;;;;;;9.40;5.77;;;18.70;99.90;;;;;;4973631;28;20325;-68
2023/09/18 13:10:41;;;;;;;10.40;5.83;;;18.60;99.90;;;;;;4973687;28;20195;-69
2023/09/18 13:13:21;;;;;;;10.07;5.87;;;18.60;99.90;;;;;;4973907;28;20258;-68
2023/09/18 13:15:49;;;;;;;10.87;6.17;;;18.50;99.90;;;;;;4974065;28;20939;-68
2023/09/18 13:18:19;;;;;;;11.03;7.17;;;18.50;99.90;;;;;;4955092;28;20586;-68
2023/09/18 13:20:46;;;;;;;8.57;6.00;;;18.40;99.90;;;;;;4956410;28;20265;-67